BAW5DW EGLL-LPPT
Flight info
| Callsign | BAW5DW |
|---|---|
| Flight time | N/A |
| Altitude | 37000 |
| Route | GOGSI2F GOGSI N621 SAM M195 LORKU DCT BALDA DCT ABUPI DCT BELDU DCT XAMAX XAMAX1A |
| Aircraft | A320/M-SDE3FGIJ1KRWXY/SB1 |
Departure
| Time | N/A |
|---|---|
| Airport | London Heathrow Airport (EGLL) |
Arrival
| Time | 2026-04-27 19:33 |
|---|---|
| Airport | Lisbon Humberto Delgado Airport (LPPT) |
| Time | Latitude | Longitude | Altitude | Speed | Heading |
|---|---|---|---|---|---|
| 2026-04-27 17:44 | 49.07000 | -2.93919 | 37246 ft | 451 kts | 204° |
| 2026-04-27 17:44 | 49.04095 | -2.95786 | 37246 ft | 451 kts | 204° |
| 2026-04-27 17:45 | 48.98322 | -2.99487 | 37254 ft | 450 kts | 204° |
| 2026-04-27 17:45 | 48.92555 | -3.03162 | 37252 ft | 448 kts | 204° |
| 2026-04-27 17:46 | 48.86806 | -3.06827 | 37238 ft | 447 kts | 203° |
| 2026-04-27 17:46 | 48.81094 | -3.10456 | 37224 ft | 448 kts | 203° |
| 2026-04-27 17:47 | 48.75330 | -3.14111 | 37221 ft | 449 kts | 203° |
| 2026-04-27 17:47 | 48.69564 | -3.17758 | 37222 ft | 450 kts | 203° |
| 2026-04-27 17:48 | 48.63776 | -3.21394 | 37226 ft | 450 kts | 204° |
| 2026-04-27 17:48 | 48.57991 | -3.25035 | 37233 ft | 449 kts | 203° |
| 2026-04-27 17:49 | 48.52232 | -3.28656 | 37236 ft | 448 kts | 203° |
| 2026-04-27 17:49 | 48.46518 | -3.32236 | 37225 ft | 447 kts | 204° |
| 2026-04-27 17:50 | 48.40773 | -3.35821 | 37219 ft | 446 kts | 203° |
| 2026-04-27 17:50 | 48.32190 | -3.41169 | 37224 ft | 444 kts | 203° |
| 2026-04-27 17:51 | 48.26490 | -3.44699 | 37207 ft | 442 kts | 203° |
| 2026-04-27 17:51 | 48.20804 | -3.48205 | 37193 ft | 442 kts | 203° |
| 2026-04-27 17:52 | 48.15109 | -3.51719 | 37185 ft | 442 kts | 204° |
| 2026-04-27 17:52 | 48.10387 | -3.54648 | 37209 ft | 441 kts | 204° |
| 2026-04-27 17:53 | 48.03780 | -3.58721 | 37188 ft | 441 kts | 204° |
| 2026-04-27 17:53 | 47.98102 | -3.62195 | 37182 ft | 440 kts | 203° |
| 2026-04-27 17:54 | 47.92428 | -3.65663 | 37174 ft | 440 kts | 203° |
| 2026-04-27 17:54 | 47.86763 | -3.69125 | 37173 ft | 440 kts | 203° |
| 2026-04-27 17:55 | 47.81085 | -3.72585 | 37173 ft | 441 kts | 203° |
| 2026-04-27 17:55 | 47.75400 | -3.76034 | 37173 ft | 441 kts | 203° |
| 2026-04-27 17:56 | 47.69760 | -3.79449 | 37185 ft | 441 kts | 203° |
| 2026-04-27 17:56 | 47.64082 | -3.82886 | 37178 ft | 441 kts | 203° |
| 2026-04-27 17:57 | 47.58395 | -3.86320 | 37177 ft | 441 kts | 203° |
| 2026-04-27 17:57 | 47.52709 | -3.89739 | 37166 ft | 441 kts | 203° |
| 2026-04-27 17:58 | 47.47020 | -3.93156 | 37173 ft | 440 kts | 204° |
| 2026-04-27 17:58 | 47.41365 | -3.96542 | 37174 ft | 440 kts | 204° |
| 2026-04-27 17:59 | 47.35689 | -3.99932 | 37176 ft | 439 kts | 204° |
| 2026-04-27 17:59 | 47.30020 | -4.03318 | 37175 ft | 439 kts | 204° |
| 2026-04-27 18:00 | 47.24366 | -4.06679 | 37179 ft | 438 kts | 204° |
| 2026-04-27 18:00 | 47.18724 | -4.10022 | 37182 ft | 437 kts | 204° |
| 2026-04-27 18:01 | 47.13079 | -4.13369 | 37190 ft | 437 kts | 204° |
| 2026-04-27 18:01 | 47.07464 | -4.16687 | 37179 ft | 437 kts | 204° |
| 2026-04-27 18:02 | 47.01810 | -4.20014 | 37176 ft | 437 kts | 204° |
| 2026-04-27 18:02 | 46.96156 | -4.23332 | 37180 ft | 437 kts | 204° |
| 2026-04-27 18:03 | 46.90540 | -4.26632 | 37181 ft | 437 kts | 204° |
| 2026-04-27 18:03 | 46.84852 | -4.29970 | 37176 ft | 437 kts | 204° |
| 2026-04-27 18:04 | 46.80162 | -4.32708 | 37176 ft | 436 kts | 204° |
| 2026-04-27 18:04 | 46.73604 | -4.36524 | 37178 ft | 436 kts | 204° |
| 2026-04-27 18:05 | 46.68927 | -4.39247 | 37178 ft | 436 kts | 204° |
| 2026-04-27 18:05 | 46.63257 | -4.42535 | 37178 ft | 436 kts | 204° |
| 2026-04-27 18:06 | 46.57659 | -4.45779 | 37178 ft | 436 kts | 204° |
| 2026-04-27 18:06 | 46.51984 | -4.49062 | 37176 ft | 435 kts | 204° |
| 2026-04-27 18:07 | 46.46395 | -4.52292 | 37173 ft | 435 kts | 204° |
| 2026-04-27 18:07 | 46.40760 | -4.55533 | 37178 ft | 435 kts | 204° |
| 2026-04-27 18:08 | 46.35130 | -4.58763 | 37181 ft | 434 kts | 204° |
| 2026-04-27 18:08 | 46.29511 | -4.61978 | 37177 ft | 434 kts | 204° |
| 2026-04-27 18:09 | 46.23886 | -4.65186 | 37171 ft | 434 kts | 204° |
| 2026-04-27 18:09 | 46.18275 | -4.68389 | 37179 ft | 433 kts | 204° |
| 2026-04-27 18:10 | 46.12707 | -4.71549 | 37179 ft | 432 kts | 204° |
| 2026-04-27 18:10 | 46.07109 | -4.74722 | 37179 ft | 432 kts | 204° |
| 2026-04-27 18:11 | 46.01518 | -4.77890 | 37181 ft | 431 kts | 204° |
| 2026-04-27 18:11 | 45.95930 | -4.81056 | 37177 ft | 431 kts | 204° |
| 2026-04-27 18:12 | 45.90340 | -4.84208 | 37174 ft | 431 kts | 204° |
| 2026-04-27 18:12 | 45.84756 | -4.87339 | 37168 ft | 431 kts | 204° |
| 2026-04-27 18:13 | 45.79174 | -4.90476 | 37179 ft | 430 kts | 204° |
| 2026-04-27 18:13 | 45.73611 | -4.93593 | 37179 ft | 429 kts | 204° |
| 2026-04-27 18:14 | 45.68082 | -4.96685 | 37176 ft | 429 kts | 204° |
| 2026-04-27 18:14 | 45.62525 | -4.99794 | 37174 ft | 428 kts | 204° |
| 2026-04-27 18:15 | 45.56984 | -5.02881 | 37177 ft | 427 kts | 204° |
| 2026-04-27 18:15 | 45.51442 | -5.05960 | 37177 ft | 427 kts | 204° |
| 2026-04-27 18:16 | 45.45911 | -5.09025 | 37169 ft | 427 kts | 204° |
| 2026-04-27 18:16 | 45.40372 | -5.12085 | 37181 ft | 426 kts | 204° |
| 2026-04-27 18:17 | 45.34853 | -5.15133 | 37179 ft | 425 kts | 204° |
| 2026-04-27 18:17 | 45.29339 | -5.18172 | 37177 ft | 425 kts | 204° |
| 2026-04-27 18:18 | 45.23854 | -5.21175 | 37168 ft | 424 kts | 204° |
| 2026-04-27 18:18 | 45.18359 | -5.24189 | 37175 ft | 423 kts | 204° |
| 2026-04-27 18:19 | 45.12866 | -5.27199 | 37175 ft | 422 kts | 204° |
| 2026-04-27 18:19 | 45.07389 | -5.30196 | 37177 ft | 422 kts | 204° |
| 2026-04-27 18:20 | 45.01917 | -5.33178 | 37170 ft | 421 kts | 204° |
| 2026-04-27 18:20 | 44.96443 | -5.36152 | 37174 ft | 421 kts | 204° |
| 2026-04-27 18:21 | 44.90970 | -5.39117 | 37170 ft | 421 kts | 204° |
| 2026-04-27 18:21 | 44.85536 | -5.42068 | 37155 ft | 421 kts | 204° |
| 2026-04-27 18:22 | 44.80081 | -5.45031 | 37165 ft | 420 kts | 204° |
| 2026-04-27 18:22 | 44.74620 | -5.47978 | 37168 ft | 420 kts | 204° |
| 2026-04-27 18:23 | 44.69162 | -5.50908 | 37167 ft | 419 kts | 204° |
| 2026-04-27 18:23 | 44.63705 | -5.53835 | 37166 ft | 419 kts | 204° |
| 2026-04-27 18:24 | 44.58281 | -5.56820 | 37168 ft | 418 kts | 206° |
| 2026-04-27 18:24 | 44.52959 | -5.60121 | 37163 ft | 417 kts | 207° |
| 2026-04-27 18:25 | 44.47677 | -5.63503 | 37158 ft | 417 kts | 207° |
| 2026-04-27 18:25 | 44.42399 | -5.66801 | 37154 ft | 418 kts | 207° |
| 2026-04-27 18:26 | 44.37075 | -5.70061 | 37148 ft | 418 kts | 207° |
| 2026-04-27 18:26 | 44.31745 | -5.73318 | 37154 ft | 418 kts | 206° |
| 2026-04-27 18:27 | 44.26410 | -5.76586 | 37136 ft | 418 kts | 206° |
| 2026-04-27 18:27 | 44.21074 | -5.79856 | 37139 ft | 418 kts | 206° |
| 2026-04-27 18:28 | 44.15734 | -5.83115 | 37143 ft | 419 kts | 206° |
| 2026-04-27 18:28 | 44.10400 | -5.86360 | 37142 ft | 419 kts | 206° |
| 2026-04-27 18:29 | 44.05052 | -5.89601 | 37134 ft | 419 kts | 206° |
| 2026-04-27 18:29 | 43.99701 | -5.92844 | 37137 ft | 419 kts | 206° |
| 2026-04-27 18:30 | 43.94395 | -5.96067 | 37136 ft | 419 kts | 206° |
| 2026-04-27 18:30 | 43.89036 | -5.99301 | 37141 ft | 420 kts | 206° |
| 2026-04-27 18:31 | 43.83673 | -6.02530 | 37122 ft | 420 kts | 206° |
| 2026-04-27 18:31 | 43.78303 | -6.05772 | 37128 ft | 421 kts | 206° |
| 2026-04-27 18:32 | 43.72936 | -6.09005 | 37132 ft | 421 kts | 206° |
| 2026-04-27 18:32 | 43.67560 | -6.12219 | 37148 ft | 421 kts | 206° |
| 2026-04-27 18:33 | 43.62184 | -6.15432 | 37134 ft | 421 kts | 206° |
| 2026-04-27 18:33 | 43.56794 | -6.18652 | 37140 ft | 422 kts | 206° |
| 2026-04-27 18:34 | 43.51436 | -6.21838 | 37141 ft | 422 kts | 206° |
| 2026-04-27 18:34 | 43.46040 | -6.25046 | 37118 ft | 422 kts | 206° |
| 2026-04-27 18:35 | 43.40643 | -6.28255 | 37113 ft | 422 kts | 206° |
| 2026-04-27 18:35 | 43.35240 | -6.31457 | 37118 ft | 423 kts | 205° |
| 2026-04-27 18:36 | 43.29833 | -6.34656 | 37112 ft | 423 kts | 205° |
| 2026-04-27 18:36 | 43.24458 | -6.37825 | 37093 ft | 423 kts | 205° |
| 2026-04-27 18:37 | 43.19014 | -6.41018 | 37092 ft | 423 kts | 205° |
| 2026-04-27 18:37 | 43.13637 | -6.44183 | 37090 ft | 423 kts | 205° |
| 2026-04-27 18:38 | 43.08222 | -6.47371 | 37092 ft | 423 kts | 205° |
| 2026-04-27 18:38 | 43.02812 | -6.50544 | 37077 ft | 423 kts | 205° |
| 2026-04-27 18:39 | 42.97402 | -6.53709 | 37075 ft | 423 kts | 205° |
| 2026-04-27 18:39 | 42.91980 | -6.56875 | 37070 ft | 423 kts | 205° |
| 2026-04-27 18:40 | 42.86563 | -6.60025 | 37066 ft | 423 kts | 205° |
| 2026-04-27 18:40 | 42.81137 | -6.63177 | 37053 ft | 423 kts | 205° |
| 2026-04-27 18:41 | 42.75724 | -6.66313 | 37063 ft | 423 kts | 205° |
| 2026-04-27 18:41 | 42.70309 | -6.69453 | 37064 ft | 422 kts | 205° |
| 2026-04-27 18:42 | 42.65810 | -6.72052 | 37061 ft | 422 kts | 205° |
| 2026-04-27 18:42 | 42.59520 | -6.75672 | 37062 ft | 422 kts | 205° |
| 2026-04-27 18:43 | 42.54105 | -6.78789 | 37059 ft | 422 kts | 205° |
| 2026-04-27 18:43 | 42.48700 | -6.81901 | 37059 ft | 422 kts | 205° |
| 2026-04-27 18:44 | 42.43285 | -6.85014 | 37068 ft | 422 kts | 205° |
| 2026-04-27 18:44 | 42.37872 | -6.88105 | 37053 ft | 422 kts | 204° |
| 2026-04-27 18:45 | 42.32458 | -6.91194 | 37055 ft | 422 kts | 204° |
| 2026-04-27 18:45 | 42.27044 | -6.94283 | 37048 ft | 422 kts | 205° |
| 2026-04-27 18:46 | 42.21659 | -6.97351 | 37047 ft | 422 kts | 205° |
| 2026-04-27 18:46 | 42.16244 | -7.00420 | 37040 ft | 422 kts | 204° |
| 2026-04-27 18:47 | 42.10819 | -7.03494 | 37040 ft | 422 kts | 204° |
| 2026-04-27 18:47 | 42.05401 | -7.06562 | 37028 ft | 423 kts | 204° |
| 2026-04-27 18:48 | 41.99987 | -7.09632 | 37028 ft | 422 kts | 204° |
| 2026-04-27 18:48 | 41.95475 | -7.12173 | 37013 ft | 423 kts | 204° |
| 2026-04-27 18:49 | 41.90046 | -7.15238 | 37023 ft | 423 kts | 204° |
| 2026-04-27 18:49 | 41.84614 | -7.18300 | 37008 ft | 423 kts | 204° |
| 2026-04-27 18:50 | 41.79175 | -7.21336 | 37002 ft | 423 kts | 204° |
| 2026-04-27 18:50 | 41.74096 | -7.25231 | 36998 ft | 421 kts | 220° |
| 2026-04-27 18:51 | 41.69967 | -7.30765 | 36994 ft | 421 kts | 226° |
| 2026-04-27 18:51 | 41.65912 | -7.36403 | 36997 ft | 421 kts | 226° |
| 2026-04-27 18:52 | 41.61856 | -7.41997 | 36990 ft | 421 kts | 226° |
| 2026-04-27 18:53 | 41.55723 | -7.50460 | 36994 ft | 421 kts | 226° |
| 2026-04-27 18:53 | 41.51672 | -7.56048 | 36977 ft | 421 kts | 226° |
| 2026-04-27 18:54 | 41.47590 | -7.61658 | 36972 ft | 422 kts | 226° |
| 2026-04-27 18:54 | 41.43496 | -7.67264 | 36975 ft | 422 kts | 225° |
| 2026-04-27 18:55 | 41.39395 | -7.72878 | 36981 ft | 422 kts | 225° |
| 2026-04-27 18:55 | 41.34969 | -7.77972 | 36977 ft | 422 kts | 212° |
| 2026-04-27 18:56 | 41.29655 | -7.81331 | 36967 ft | 423 kts | 205° |
| 2026-04-27 18:56 | 41.24257 | -7.84468 | 36961 ft | 423 kts | 205° |
| 2026-04-27 18:57 | 41.18892 | -7.87600 | 36963 ft | 424 kts | 204° |
| 2026-04-27 18:57 | 41.13493 | -7.90739 | 36978 ft | 424 kts | 205° |
| 2026-04-27 18:58 | 41.08070 | -7.93881 | 36967 ft | 424 kts | 205° |
| 2026-04-27 18:58 | 41.02679 | -7.97002 | 36967 ft | 424 kts | 204° |
| 2026-04-27 18:59 | 40.97264 | -8.00131 | 36966 ft | 424 kts | 204° |
| 2026-04-27 18:59 | 40.91853 | -8.03249 | 36968 ft | 424 kts | 204° |
| 2026-04-27 19:00 | 40.86432 | -8.06364 | 36966 ft | 424 kts | 204° |
| 2026-04-27 19:00 | 40.81009 | -8.09477 | 36961 ft | 425 kts | 204° |
| 2026-04-27 19:01 | 40.75582 | -8.12586 | 36960 ft | 425 kts | 204° |
| 2026-04-27 19:01 | 40.70187 | -8.15670 | 36956 ft | 425 kts | 204° |
| 2026-04-27 19:02 | 40.64740 | -8.18786 | 36959 ft | 425 kts | 204° |
| 2026-04-27 19:02 | 40.59301 | -8.21868 | 36948 ft | 426 kts | 203° |
| 2026-04-27 19:03 | 40.53790 | -8.24662 | 36950 ft | 426 kts | 201° |
| 2026-04-27 19:03 | 40.48202 | -8.27320 | 36953 ft | 427 kts | 201° |
| 2026-04-27 19:04 | 40.42655 | -8.29979 | 36954 ft | 427 kts | 201° |
| 2026-04-27 19:04 | 40.37091 | -8.32694 | 36957 ft | 427 kts | 201° |
| 2026-04-27 19:05 | 40.31524 | -8.35437 | 36968 ft | 427 kts | 201° |
| 2026-04-27 19:05 | 40.25954 | -8.38168 | 36964 ft | 427 kts | 201° |
| 2026-04-27 19:06 | 40.20417 | -8.40866 | 36965 ft | 427 kts | 201° |
| 2026-04-27 19:06 | 40.14852 | -8.43574 | 36961 ft | 427 kts | 201° |
| 2026-04-27 19:07 | 40.09285 | -8.46271 | 36964 ft | 427 kts | 201° |
| 2026-04-27 19:07 | 40.03709 | -8.48971 | 36960 ft | 427 kts | 201° |
| 2026-04-27 19:08 | 39.98132 | -8.51671 | 36965 ft | 427 kts | 201° |
| 2026-04-27 19:08 | 39.92564 | -8.54366 | 36963 ft | 427 kts | 201° |
| 2026-04-27 19:09 | 39.86968 | -8.57069 | 36969 ft | 427 kts | 201° |
| 2026-04-27 19:09 | 39.81520 | -8.60115 | 36625 ft | 426 kts | 215° |
| 2026-04-27 19:09 | 39.79167 | -8.62455 | 36366 ft | 426 kts | 218° |
| 2026-04-27 19:10 | 39.76841 | -8.64845 | 36111 ft | 427 kts | 218° |
| 2026-04-27 19:10 | 39.74517 | -8.67243 | 35853 ft | 427 kts | 218° |
| 2026-04-27 19:10 | 39.72188 | -8.69648 | 35612 ft | 427 kts | 218° |
| 2026-04-27 19:10 | 39.70645 | -8.71239 | 35445 ft | 428 kts | 218° |
| 2026-04-27 19:11 | 39.67522 | -8.74448 | 35107 ft | 428 kts | 218° |
| 2026-04-27 19:11 | 39.65184 | -8.76846 | 34869 ft | 429 kts | 218° |
| 2026-04-27 19:11 | 39.62886 | -8.79204 | 34631 ft | 429 kts | 218° |
| 2026-04-27 19:11 | 39.60529 | -8.81622 | 34387 ft | 429 kts | 217° |
| 2026-04-27 19:12 | 39.58180 | -8.84031 | 34146 ft | 430 kts | 217° |
| 2026-04-27 19:12 | 39.55832 | -8.86437 | 33905 ft | 430 kts | 217° |
| 2026-04-27 19:12 | 39.53481 | -8.88842 | 33626 ft | 431 kts | 217° |
| 2026-04-27 19:12 | 39.51120 | -8.91256 | 32978 ft | 433 kts | 217° |
| 2026-04-27 19:13 | 39.48738 | -8.93687 | 32033 ft | 438 kts | 217° |
| 2026-04-27 19:13 | 39.46333 | -8.96138 | 31154 ft | 441 kts | 217° |
| 2026-04-27 19:13 | 39.43912 | -8.98602 | 30166 ft | 445 kts | 218° |
| 2026-04-27 19:13 | 39.41461 | -9.01098 | 28991 ft | 451 kts | 218° |
| 2026-04-27 19:14 | 39.39006 | -9.03594 | 28093 ft | 451 kts | 218° |
| 2026-04-27 19:14 | 39.36561 | -9.06078 | 27520 ft | 443 kts | 218° |
| 2026-04-27 19:14 | 39.34148 | -9.08527 | 26827 ft | 438 kts | 217° |
| 2026-04-27 19:14 | 39.31791 | -9.10916 | 26159 ft | 434 kts | 218° |
| 2026-04-27 19:15 | 39.29425 | -9.13313 | 25485 ft | 430 kts | 218° |
| 2026-04-27 19:15 | 39.27075 | -9.15689 | 24818 ft | 427 kts | 218° |
| 2026-04-27 19:15 | 39.24744 | -9.18044 | 24149 ft | 424 kts | 218° |
| 2026-04-27 19:15 | 39.22436 | -9.20373 | 23490 ft | 421 kts | 218° |
| 2026-04-27 19:16 | 39.20120 | -9.22711 | 22751 ft | 416 kts | 217° |
| 2026-04-27 19:16 | 39.18614 | -9.24232 | 22342 ft | 412 kts | 217° |
| 2026-04-27 19:16 | 39.15614 | -9.27257 | 21503 ft | 405 kts | 217° |
| 2026-04-27 19:16 | 39.13400 | -9.29489 | 20893 ft | 401 kts | 217° |
| 2026-04-27 19:17 | 39.11243 | -9.31662 | 20327 ft | 397 kts | 217° |
| 2026-04-27 19:17 | 39.09073 | -9.33846 | 19758 ft | 394 kts | 218° |
| 2026-04-27 19:17 | 39.06920 | -9.36007 | 19213 ft | 390 kts | 217° |
| 2026-04-27 19:17 | 39.04786 | -9.38147 | 18670 ft | 387 kts | 217° |
| 2026-04-27 19:18 | 39.02668 | -9.40269 | 18115 ft | 384 kts | 217° |
| 2026-04-27 19:18 | 39.00574 | -9.42372 | 17557 ft | 380 kts | 217° |
| 2026-04-27 19:18 | 38.98498 | -9.44452 | 17009 ft | 375 kts | 218° |
| 2026-04-27 19:18 | 38.96448 | -9.46497 | 16468 ft | 371 kts | 218° |
| 2026-04-27 19:19 | 38.94416 | -9.48521 | 15908 ft | 368 kts | 218° |
| 2026-04-27 19:19 | 38.92400 | -9.50534 | 15342 ft | 366 kts | 218° |
| 2026-04-27 19:19 | 38.90350 | -9.52456 | 14770 ft | 364 kts | 212° |
| 2026-04-27 19:19 | 38.88071 | -9.53874 | 14179 ft | 364 kts | 200° |
| 2026-04-27 19:20 | 38.85637 | -9.54676 | 13568 ft | 364 kts | 189° |
| 2026-04-27 19:20 | 38.83127 | -9.54878 | 12935 ft | 363 kts | 180° |
| 2026-04-27 19:20 | 38.80614 | -9.54923 | 12336 ft | 360 kts | 180° |
| 2026-04-27 19:20 | 38.78112 | -9.54974 | 11739 ft | 358 kts | 180° |
| 2026-04-27 19:21 | 38.75621 | -9.55029 | 11137 ft | 356 kts | 179° |
| 2026-04-27 19:21 | 38.73169 | -9.55087 | 10688 ft | 350 kts | 179° |
| 2026-04-27 19:21 | 38.70775 | -9.55146 | 10567 ft | 335 kts | 178° |
| 2026-04-27 19:21 | 38.68493 | -9.55204 | 10447 ft | 322 kts | 179° |
| 2026-04-27 19:22 | 38.66296 | -9.55256 | 10327 ft | 310 kts | 178° |
| 2026-04-27 19:22 | 38.64177 | -9.55301 | 10200 ft | 299 kts | 178° |
| 2026-04-27 19:22 | 38.62120 | -9.55343 | 10031 ft | 292 kts | 177° |
| 2026-04-27 19:22 | 38.60091 | -9.55383 | 9973 ft | 292 kts | 175° |
| 2026-04-27 19:23 | 38.58085 | -9.55096 | 9666 ft | 291 kts | 167° |
| 2026-04-27 19:23 | 38.56099 | -9.54593 | 9293 ft | 290 kts | 164° |
| 2026-04-27 19:23 | 38.54137 | -9.54088 | 8871 ft | 285 kts | 165° |
| 2026-04-27 19:23 | 38.52205 | -9.53591 | 8414 ft | 283 kts | 167° |
| 2026-04-27 19:24 | 38.50293 | -9.53005 | 8042 ft | 283 kts | 158° |
| 2026-04-27 19:24 | 38.48559 | -9.51896 | 7933 ft | 277 kts | 144° |
| 2026-04-27 19:24 | 38.46986 | -9.50546 | 7623 ft | 276 kts | 144° |
| 2026-04-27 19:24 | 38.45523 | -9.48996 | 7273 ft | 273 kts | 128° |
| 2026-04-27 19:25 | 38.44637 | -9.46890 | 6941 ft | 270 kts | 104° |
| 2026-04-27 19:25 | 38.44487 | -9.44535 | 6633 ft | 267 kts | 82° |
| 2026-04-27 19:25 | 38.45090 | -9.42337 | 6450 ft | 261 kts | 59° |
| 2026-04-27 19:25 | 38.46245 | -9.40585 | 6222 ft | 257 kts | 46° |
| 2026-04-27 19:26 | 38.47500 | -9.38958 | 5917 ft | 257 kts | 46° |
| 2026-04-27 19:26 | 38.48750 | -9.37336 | 5632 ft | 255 kts | 46° |
| 2026-04-27 19:26 | 38.49994 | -9.35722 | 5307 ft | 255 kts | 45° |
| 2026-04-27 19:26 | 38.51229 | -9.34116 | 5123 ft | 249 kts | 45° |
| 2026-04-27 19:27 | 38.52431 | -9.32554 | 4900 ft | 245 kts | 45° |
| 2026-04-27 19:27 | 38.53627 | -9.30998 | 4594 ft | 245 kts | 44° |
| 2026-04-27 19:27 | 38.54809 | -9.29456 | 4403 ft | 239 kts | 44° |
| 2026-04-27 19:27 | 38.55947 | -9.27971 | 4273 ft | 229 kts | 43° |
| 2026-04-27 19:28 | 38.57046 | -9.26537 | 4135 ft | 223 kts | 44° |
| 2026-04-27 19:28 | 38.58126 | -9.25129 | 4040 ft | 218 kts | 43° |
| 2026-04-27 19:28 | 38.59186 | -9.23827 | 3923 ft | 206 kts | 33° |
| 2026-04-27 19:28 | 38.60440 | -9.23023 | 3705 ft | 197 kts | 21° |
| 2026-04-27 19:29 | 38.61675 | -9.22369 | 3440 ft | 189 kts | 21° |
| 2026-04-27 19:29 | 38.62873 | -9.21733 | 3192 ft | 183 kts | 20° |
| 2026-04-27 19:29 | 38.64033 | -9.21116 | 2951 ft | 176 kts | 20° |
| 2026-04-27 19:29 | 38.65122 | -9.20536 | 2754 ft | 166 kts | 21° |
| 2026-04-27 19:30 | 38.66177 | -9.19974 | 2528 ft | 163 kts | 20° |
| 2026-04-27 19:30 | 38.67219 | -9.19419 | 2293 ft | 162 kts | 20° |
| 2026-04-27 19:30 | 38.68255 | -9.18867 | 2078 ft | 160 kts | 20° |
| 2026-04-27 19:30 | 38.69275 | -9.18323 | 1873 ft | 158 kts | 20° |
| 2026-04-27 19:31 | 38.70258 | -9.17798 | 1669 ft | 144 kts | 20° |
| 2026-04-27 19:31 | 38.71158 | -9.17318 | 1483 ft | 137 kts | 18° |
| 2026-04-27 19:31 | 38.72028 | -9.16854 | 1315 ft | 133 kts | 19° |
| 2026-04-27 19:31 | 38.72881 | -9.16399 | 1143 ft | 132 kts | 19° |
| 2026-04-27 19:32 | 38.73733 | -9.15945 | 979 ft | 133 kts | 19° |
| 2026-04-27 19:32 | 38.74586 | -9.15489 | 810 ft | 133 kts | 20° |
| 2026-04-27 19:32 | 38.75452 | -9.15027 | 642 ft | 135 kts | 18° |
| 2026-04-27 19:32 | 38.76314 | -9.14566 | 450 ft | 136 kts | 18° |
| 2026-04-27 19:33 | 38.76888 | -9.14258 | 360 ft | 134 kts | 18° |
| 2026-04-27 19:33 | 38.77415 | -9.13978 | 363 ft | 109 kts | 22° |
| 2026-04-27 19:33 | 38.78068 | -9.13627 | 365 ft | 43 kts | 22° |
| 2026-04-27 19:33 | 38.78323 | -9.13419 | 364 ft | 20 kts | 47° |
| 2026-04-27 19:34 | 38.78364 | -9.13288 | 363 ft | 14 kts | 117° |
| 2026-04-27 19:34 | 38.78313 | -9.13268 | 360 ft | 14 kts | 195° |
| 2026-04-27 19:34 | 38.78215 | -9.13320 | 363 ft | 17 kts | 202° |
| 2026-04-27 19:34 | 38.78094 | -9.13381 | 361 ft | 20 kts | 200° |
| 2026-04-27 19:35 | 38.77944 | -9.13396 | 352 ft | 25 kts | 169° |
| 2026-04-27 19:35 | 38.77754 | -9.13341 | 342 ft | 21 kts | 167° |
| 2026-04-27 19:35 | 38.77592 | -9.13317 | 335 ft | 25 kts | 177° |
| 2026-04-27 19:35 | 38.77533 | -9.13298 | 334 ft | 5 kts | 131° |
| 2026-04-27 19:36 | 38.77540 | -9.13238 | 335 ft | 8 kts | 78° |
| 2026-04-27 19:36 | 38.77548 | -9.13187 | 336 ft | 4 kts | 78° |
| 2026-04-27 19:36 | 38.77549 | -9.13180 | 335 ft | 0 kts | 78° |